Time;durP1;ratioP1;P1;durP2;ratioP2;P2;SDS_P1;SDS_P2;PMS_P1;PMS_P2;Temp;Humidity;BMP_temperature;BMP_pressure;BME280_temperature;BME280_humidity;BME280_pressure;Samples;Min_cycle;Max_cycle;Signal;HPM_P1;HPM_P2
2023/12/27 00:01:56;;;;;;;;;;;;;;;11.05;58.76;100251.44;4453827;32;33394;-76
2023/12/27 00:04:24;;;;;;;;;;;;;;;10.99;59.02;100240.72;4451674;32;33483;-75
2023/12/27 00:06:52;;;;;;;;;;;;;;;10.94;59.00;100243.09;4442488;32;34800;-76
2023/12/27 00:09:19;;;;;;;;;;;;;;;10.76;59.97;100253.44;4437298;32;34609;-76
2023/12/27 00:11:47;;;;;;;;;;;;;;;10.76;59.88;100253.44;4454258;32;34089;-76
2023/12/27 00:14:14;;;;;;;;;;;;;;;10.97;59.23;100258.81;4445910;32;32671;-76
2023/12/27 00:16:41;;;;;;;;;;;;;;;10.95;59.37;100259.53;4431400;32;32586;-76
2023/12/27 00:19:09;;;;;;;;;;;;;;;10.79;59.60;100256.16;4450908;32;33667;-76
2023/12/27 00:21:36;;;;;;;;;;;;;;;10.82;59.95;100258.94;4454713;32;34149;-76
2023/12/27 00:24:04;;;;;;;;;;;;;;;10.71;59.98;100257.47;4451696;32;33231;-76
2023/12/27 00:26:31;;;;;;;;;;;;;;;10.65;60.40;100269.25;4452610;32;33926;-76
2023/12/27 00:28:59;;;;;;;;;;;;;;;10.51;61.28;100266.81;4455620;32;33567;-75
2023/12/27 00:31:27;;;;;;;;;;;;;;;10.55;61.25;100275.66;4424178;32;33935;-75
2023/12/27 00:33:55;;;;;;;;;;;;;;;10.34;61.90;100283.16;4452528;32;32822;-76
2023/12/27 00:36:29;;;;;;;;;;;;;;;10.49;61.57;100290.84;4453584;32;34101;-74
2023/12/27 00:38:59;;;;;;;;;;;;;;;10.50;61.67;100295.22;4452475;32;34108;-75
2023/12/27 00:41:27;;;;;;;;;;;;;;;10.60;61.08;100287.13;4432057;32;34068;-76
2023/12/27 00:43:55;;;;;;;;;;;;;;;10.53;61.40;100285.91;4449748;32;33483;-75
2023/12/27 00:46:23;;;;;;;;;;;;;;;10.41;61.71;100291.34;4438425;32;33592;-75
2023/12/27 00:48:50;;;;;;;;;;;;;;;10.55;61.13;100293.78;4453659;32;34399;-75
2023/12/27 00:51:19;;;;;;;;;;;;;;;10.65;60.43;100296.03;4463089;32;33756;-75
2023/12/27 00:53:47;;;;;;;;;;;;;;;10.85;59.73;100288.41;4444143;32;33342;-75
2023/12/27 00:56:15;;;;;;;;;;;;;;;10.81;59.58;100303.78;4435672;32;34237;-75
2023/12/27 00:58:42;;;;;;;;;;;;;;;10.56;60.46;100308.50;4453719;32;34038;-75
2023/12/27 01:01:11;;;;;;;;;;;;;;;10.49;60.35;100315.06;4448904;32;34064;-75
2023/12/27 01:03:39;;;;;;;;;;;;;;;10.68;59.80;100316.03;4449433;32;34015;-75
2023/12/27 01:06:07;;;;;;;;;;;;;;;10.72;59.09;100328.31;4451527;32;34251;-75
2023/12/27 01:08:35;;;;;;;;;;;;;;;10.89;58.97;100330.09;4456254;32;34659;-75
2023/12/27 01:11:02;;;;;;;;;;;;;;;11.08;58.20;100318.97;4438024;32;32466;-75
2023/12/27 01:13:31;;;;;;;;;;;;;;;11.14;57.92;100324.47;4453953;32;34030;-75
2023/12/27 01:15:59;;;;;;;;;;;;;;;11.19;57.34;100322.13;4452483;32;34483;-75
2023/12/27 01:18:26;;;;;;;;;;;;;;;11.25;57.20;100329.31;4449726;32;35126;-76
2023/12/27 01:20:56;;;;;;;;;;;;;;;11.30;56.92;100335.59;4448716;32;33810;-76
2023/12/27 01:23:23;;;;;;;;;;;;;;;11.20;56.89;100342.94;4430670;32;33252;-75
2023/12/27 01:25:50;;;;;;;;;;;;;;;11.16;56.83;100358.25;4449125;32;34877;-75
2023/12/27 01:28:18;;;;;;;;;;;;;;;11.22;56.59;100353.38;4455798;32;35094;-75
2023/12/27 01:30:45;;;;;;;;;;;;;;;11.34;56.22;100353.13;4456370;32;34324;-75
2023/12/27 01:33:12;;;;;;;;;;;;;;;11.27;56.46;100353.62;4451363;32;32234;-76
2023/12/27 01:35:40;;;;;;;;;;;;;;;11.30;56.37;100361.53;4451510;32;34204;-75
2023/12/27 01:38:07;;;;;;;;;;;;;;;11.41;55.81;100362.97;4446741;32;33376;-75
2023/12/27 01:40:35;;;;;;;;;;;;;;;11.55;55.12;100355.87;4455858;32;34687;-76
2023/12/27 01:43:02;;;;;;;;;;;;;;;11.53;55.11;100350.66;4457470;32;33278;-76
2023/12/27 01:45:30;;;;;;;;;;;;;;;11.48;55.01;100356.41;4459035;32;34097;-76
2023/12/27 01:47:57;;;;;;;;;;;;;;;11.33;55.39;100352.22;4453094;32;33739;-75
2023/12/27 01:50:24;;;;;;;;;;;;;;;11.38;55.32;100355.06;4449094;32;34209;-75
2023/12/27 01:52:52;;;;;;;;;;;;;;;11.25;55.58;100347.47;4454432;32;32774;-75
2023/12/27 01:55:19;;;;;;;;;;;;;;;11.22;55.60;100343.00;4453756;32;34837;-76
2023/12/27 01:57:47;;;;;;;;;;;;;;;11.06;56.19;100349.13;4454279;32;33997;-75
2023/12/27 02:00:15;;;;;;;;;;;;;;;11.08;56.47;100347.50;4454426;32;34690;-76
2023/12/27 02:02:42;;;;;;;;;;;;;;;10.89;57.05;100356.00;4453727;32;34114;-75
2023/12/27 02:05:09;;;;;;;;;;;;;;;10.84;56.97;100356.59;4457644;32;33716;-75
2023/12/27 02:07:37;;;;;;;;;;;;;;;10.87;57.09;100357.62;4454124;32;33851;-75
2023/12/27 02:10:04;;;;;;;;;;;;;;;10.73;57.54;100354.31;4442967;32;33695;-75
2023/12/27 02:12:32;;;;;;;;;;;;;;;10.64;57.68;100356.41;4446202;32;32921;-76
2023/12/27 02:14:59;;;;;;;;;;;;;;;10.78;57.35;100358.06;4449046;32;34611;-76
2023/12/27 02:17:27;;;;;;;;;;;;;;;10.88;57.11;100355.97;4449704;32;34740;-75
2023/12/27 02:19:54;;;;;;;;;;;;;;;10.90;56.97;100364.69;4452701;32;35024;-75
2023/12/27 02:22:25;;;;;;;;;;;;;;;10.73;57.45;100367.28;4440923;32;34258;-75
2023/12/27 02:24:53;;;;;;;;;;;;;;;10.86;57.32;100380.91;4440892;32;33312;-75
2023/12/27 02:27:22;;;;;;;;;;;;;;;10.91;56.90;100382.91;4423760;32;32266;-76
2023/12/27 02:29:49;;;;;;;;;;;;;;;10.67;57.53;100377.31;4455599;32;33964;-75
2023/12/27 02:32:17;;;;;;;;;;;;;;;10.89;56.73;100391.41;4439814;32;33526;-76
2023/12/27 02:34:44;;;;;;;;;;;;;;;10.98;56.35;100385.00;4462994;32;34678;-76
2023/12/27 02:37:12;;;;;;;;;;;;;;;10.77;56.76;100386.47;4457158;32;33816;-76
2023/12/27 02:39:41;;;;;;;;;;;;;;;10.93;56.05;100385.56;4454310;32;34890;-75
2023/12/27 02:42:08;;;;;;;;;;;;;;;11.03;55.60;100387.88;4457400;32;33225;-76
2023/12/27 02:44:35;;;;;;;;;;;;;;;11.11;55.54;100386.56;4453213;32;34215;-75
2023/12/27 02:47:03;;;;;;;;;;;;;;;10.95;55.83;100386.53;4456257;32;33791;-76
2023/12/27 02:49:30;;;;;;;;;;;;;;;10.87;56.23;100385.25;4456837;32;34138;-76
2023/12/27 02:51:57;;;;;;;;;;;;;;;10.88;56.14;100382.75;4454085;32;33394;-76
2023/12/27 02:54:25;;;;;;;;;;;;;;;10.80;56.22;100384.94;4455595;32;34161;-76
2023/12/27 02:56:52;;;;;;;;;;;;;;;10.83;56.10;100391.97;4444808;32;33462;-76
2023/12/27 02:59:20;;;;;;;;;;;;;;;10.91;55.77;100397.56;4434464;32;32409;-75
2023/12/27 03:01:48;;;;;;;;;;;;;;;11.09;55.30;100398.53;4453505;32;33471;-76
2023/12/27 03:04:15;;;;;;;;;;;;;;;10.85;56.10;100405.03;4453442;32;34178;-76
2023/12/27 03:06:42;;;;;;;;;;;;;;;10.91;55.59;100407.94;4414565;32;782754;-76
2023/12/27 03:09:10;;;;;;;;;;;;;;;11.13;54.82;100416.03;4452179;32;34235;-76
2023/12/27 03:11:37;;;;;;;;;;;;;;;10.99;55.22;100417.00;4453414;32;33533;-75
2023/12/27 03:14:05;;;;;;;;;;;;;;;10.99;55.32;100417.00;4454734;32;34278;-76
2023/12/27 03:16:32;;;;;;;;;;;;;;;10.98;55.24;100416.13;4454840;32;33992;-76
2023/12/27 03:19:01;;;;;;;;;;;;;;;11.07;55.24;100420.00;4453578;32;34015;-76
2023/12/27 03:21:28;;;;;;;;;;;;;;;10.90;55.23;100426.91;4453395;32;34039;-76
2023/12/27 03:23:56;;;;;;;;;;;;;;;11.09;54.68;100428.78;4454695;32;34077;-76
2023/12/27 03:26:23;;;;;;;;;;;;;;;10.90;55.15;100437.28;4454265;32;34126;-76
2023/12/27 03:28:50;;;;;;;;;;;;;;;10.99;55.08;100442.91;4453856;32;33988;-76
2023/12/27 03:31:18;;;;;;;;;;;;;;;10.92;55.03;100440.84;4453197;32;33853;-76
2023/12/27 03:33:45;;;;;;;;;;;;;;;10.96;54.77;100437.59;4457556;32;34712;-76
2023/12/27 03:36:13;;;;;;;;;;;;;;;11.07;54.47;100431.28;4462633;32;34083;-76
2023/12/27 03:38:40;;;;;;;;;;;;;;;11.05;54.47;100443.28;4454020;32;34133;-76
2023/12/27 03:41:08;;;;;;;;;;;;;;;11.16;54.01;100446.41;4454021;32;34118;-76
2023/12/27 03:43:36;;;;;;;;;;;;;;;10.90;54.52;100442.44;4455416;32;34778;-76
2023/12/27 03:46:03;;;;;;;;;;;;;;;10.92;54.67;100446.00;4453634;32;32786;-76
2023/12/27 03:48:31;;;;;;;;;;;;;;;10.76;54.98;100452.09;4454268;32;33988;-76
2023/12/27 03:50:58;;;;;;;;;;;;;;;10.77;54.91;100452.12;4451896;32;33138;-76
2023/12/27 03:53:25;;;;;;;;;;;;;;;10.88;54.73;100459.62;4455098;32;34341;-76
2023/12/27 03:55:53;;;;;;;;;;;;;;;10.80;54.66;100457.50;4453744;32;33073;-76
2023/12/27 03:58:20;;;;;;;;;;;;;;;10.58;55.27;100464.91;4454081;32;34338;-76
2023/12/27 04:00:47;;;;;;;;;;;;;;;10.62;55.23;100469.44;4451429;32;34100;-76
2023/12/27 04:03:16;;;;;;;;;;;;;;;10.60;55.28;100478.81;4432051;32;32048;-76
2023/12/27 04:05:43;;;;;;;;;;;;;;;10.68;55.20;100472.38;4451649;32;34593;-76
2023/12/27 04:08:10;;;;;;;;;;;;;;;10.85;54.36;100475.00;4453267;32;34317;-76
2023/12/27 04:10:38;;;;;;;;;;;;;;;10.80;54.17;100475.62;4452310;32;32732;-76
2023/12/27 04:13:05;;;;;;;;;;;;;;;10.72;54.29;100469.16;4453595;32;35097;-76
2023/12/27 04:15:32;;;;;;;;;;;;;;;10.71;54.17;100469.94;4453159;32;34011;-76
2023/12/27 04:18:00;;;;;;;;;;;;;;;10.87;53.67;100473.38;4454789;32;33852;-76
2023/12/27 04:20:28;;;;;;;;;;;;;;;10.80;53.35;100473.06;4452645;32;33802;-75
2023/12/27 04:22:55;;;;;;;;;;;;;;;10.89;53.27;100474.34;4453443;32;33996;-76
2023/12/27 04:25:23;;;;;;;;;;;;;;;10.96;53.12;100469.59;4453707;32;33991;-76
2023/12/27 04:27:50;;;;;;;;;;;;;;;10.67;53.50;100473.19;4453721;32;34044;-77
2023/12/27 04:30:17;;;;;;;;;;;;;;;10.37;54.18;100483.63;4452986;32;34086;-76
2023/12/27 04:32:45;;;;;;;;;;;;;;;10.67;53.63;100480.97;4453663;32;34494;-76
2023/12/27 04:35:12;;;;;;;;;;;;;;;10.68;53.53;100476.66;4454546;32;34052;-75
2023/12/27 04:37:39;;;;;;;;;;;;;;;10.37;54.06;100486.22;4454660;32;33770;-75
2023/12/27 04:40:08;;;;;;;;;;;;;;;10.40;54.39;100481.19;4454548;32;33205;-76
2023/12/27 04:42:35;;;;;;;;;;;;;;;10.15;54.61;100478.00;4456249;32;34255;-75
2023/12/27 04:45:03;;;;;;;;;;;;;;;10.18;54.71;100483.38;4455929;32;34997;-76
2023/12/27 04:47:30;;;;;;;;;;;;;;;10.16;55.01;100496.22;4453281;32;34236;-76
2023/12/27 04:49:58;;;;;;;;;;;;;;;10.15;54.96;100496.12;4434430;32;31569;-75
2023/12/27 04:52:26;;;;;;;;;;;;;;;10.37;54.26;100503.44;4435333;32;33388;-75
2023/12/27 04:54:55;;;;;;;;;;;;;;;10.03;54.93;100510.12;4455823;32;34012;-76
2023/12/27 04:57:22;;;;;;;;;;;;;;;10.24;54.45;100504.41;4439793;32;32809;-76
2023/12/27 04:59:49;;;;;;;;;;;;;;;10.09;54.65;100514.78;4453022;32;33188;-76
2023/12/27 05:02:18;;;;;;;;;;;;;;;9.99;55.08;100515.94;4419124;32;34099;-76
2023/12/27 05:04:46;;;;;;;;;;;;;;;9.83;55.47;100521.00;4433488;32;33210;-76
2023/12/27 05:07:13;;;;;;;;;;;;;;;9.96;55.34;100527.81;4449882;32;33992;-76
2023/12/27 05:09:41;;;;;;;;;;;;;;;9.83;55.73;100526.16;4456617;32;33614;-76
2023/12/27 05:12:08;;;;;;;;;;;;;;;9.94;55.22;100527.69;4454739;32;33874;-76
2023/12/27 05:14:35;;;;;;;;;;;;;;;9.89;55.46;100536.00;4455689;32;33680;-76
2023/12/27 05:17:04;;;;;;;;;;;;;;;9.66;56.05;100538.13;4452759;32;33671;-76
2023/12/27 05:19:31;;;;;;;;;;;;;;;9.77;55.90;100546.50;4452477;32;33134;-76
2023/12/27 05:21:58;;;;;;;;;;;;;;;9.58;56.17;100541.91;4452806;32;34290;-76
2023/12/27 05:24:26;;;;;;;;;;;;;;;9.61;56.10;100550.75;4453175;32;34783;-76
2023/12/27 05:26:54;;;;;;;;;;;;;;;9.64;55.98;100550.97;4453016;32;34229;-76
2023/12/27 05:29:21;;;;;;;;;;;;;;;9.61;56.08;100550.75;4441453;32;33226;-76
2023/12/27 05:31:49;;;;;;;;;;;;;;;9.54;56.34;100556.38;4453191;32;33780;-76
2023/12/27 05:34:16;;;;;;;;;;;;;;;9.58;56.20;100560.94;4454283;32;33923;-76
2023/12/27 05:36:43;;;;;;;;;;;;;;;9.55;56.40;100555.56;4435886;32;32845;-76
2023/12/27 05:39:12;;;;;;;;;;;;;;;9.34;56.86;100557.72;4454929;32;33544;-75
2023/12/27 05:41:39;;;;;;;;;;;;;;;9.22;57.23;100560.47;4453242;32;33719;-76
2023/12/27 05:44:06;;;;;;;;;;;;;;;9.30;57.23;100568.69;4453683;32;34042;-76
2023/12/27 05:46:35;;;;;;;;;;;;;;;9.38;56.70;100567.47;4452600;32;33983;-76
2023/12/27 05:49:02;;;;;;;;;;;;;;;9.22;57.17;100565.63;4454002;32;32293;-75
2023/12/27 05:51:29;;;;;;;;;;;;;;;9.34;56.97;100574.94;4454155;32;33757;-74
2023/12/27 05:53:57;;;;;;;;;;;;;;;9.34;56.71;100580.13;4452289;32;34378;-75
2023/12/27 05:56:24;;;;;;;;;;;;;;;9.38;56.94;100582.09;4438002;32;33787;-75
2023/12/27 05:58:51;;;;;;;;;;;;;;;9.23;57.29;100587.19;4453798;32;32184;-75
2023/12/27 06:01:19;;;;;;;;;;;;;;;9.37;56.94;100591.56;4452777;32;35629;-76
2023/12/27 06:03:46;;;;;;;;;;;;;;;9.16;57.44;100596.28;4433886;32;32467;-75
2023/12/27 06:06:14;;;;;;;;;;;;;;;9.24;57.52;100595.06;4415685;32;33787;-75
2023/12/27 06:08:41;;;;;;;;;;;;;;;9.24;57.54;100595.06;4452854;32;32857;-75
2023/12/27 06:11:11;;;;;;;;;;;;;;;9.30;57.43;100601.41;4453610;32;33590;-74
2023/12/27 06:13:39;;;;;;;;;;;;;;;9.12;57.42;100604.62;4452856;32;33696;-75
2023/12/27 06:16:07;;;;;;;;;;;;;;;9.07;57.78;100611.19;4434845;32;32408;-76
2023/12/27 06:18:34;;;;;;;;;;;;;;;9.05;57.83;100613.66;4438603;32;33569;-75
2023/12/27 06:21:02;;;;;;;;;;;;;;;9.03;58.01;100614.38;4435108;32;33900;-75
2023/12/27 06:23:29;;;;;;;;;;;;;;;8.93;58.12;100623.22;4437776;32;33661;-75
2023/12/27 06:25:56;;;;;;;;;;;;;;;8.92;58.02;100621.44;4452135;32;34017;-76
2023/12/27 06:28:24;;;;;;;;;;;;;;;8.82;58.23;100629.38;4436532;32;31857;-75
2023/12/27 06:30:51;;;;;;;;;;;;;;;8.75;58.41;100634.94;4453424;32;34122;-75
2023/12/27 06:33:19;;;;;;;;;;;;;;;8.87;58.33;100637.47;4454445;32;34483;-75
2023/12/27 06:35:46;;;;;;;;;;;;;;;8.94;58.25;100639.63;4448752;32;34151;-75
2023/12/27 06:38:14;;;;;;;;;;;;;;;8.95;58.22;100646.59;4454997;32;32475;-75
2023/12/27 06:40:42;;;;;;;;;;;;;;;8.98;58.21;100657.09;4437058;32;34974;-75
2023/12/27 06:43:09;;;;;;;;;;;;;;;9.06;58.31;100658.53;4454984;32;34198;-75
2023/12/27 06:45:36;;;;;;;;;;;;;;;8.94;58.59;100665.47;4452198;32;34387;-75
2023/12/27 06:48:04;;;;;;;;;;;;;;;9.08;58.07;100680.19;4453217;32;33056;-75
2023/12/27 06:50:31;;;;;;;;;;;;;;;9.12;57.83;100692.50;4454389;32;34268;-75
2023/12/27 06:52:59;;;;;;;;;;;;;;;9.07;57.59;100688.72;4437890;32;34012;-75
2023/12/27 06:55:26;;;;;;;;;;;;;;;8.84;58.05;100685.53;4452541;32;33773;-75
2023/12/27 06:57:53;;;;;;;;;;;;;;;8.88;58.58;100696.06;4449658;32;33180;-75
2023/12/27 07:00:21;;;;;;;;;;;;;;;8.78;59.23;100705.78;4439682;32;33593;-75
2023/12/27 07:02:49;;;;;;;;;;;;;;;8.66;60.94;100708.44;4453092;32;33857;-74
2023/12/27 07:05:16;;;;;;;;;;;;;;;8.56;60.84;100712.91;4453621;32;34163;-75
2023/12/27 07:07:43;;;;;;;;;;;;;;;8.82;60.30;100710.34;4451191;32;33498;-77
2023/12/27 07:10:11;;;;;;;;;;;;;;;9.08;59.35;100705.13;4454592;32;34126;-75
2023/12/27 07:12:40;;;;;;;;;;;;;;;9.20;58.70;100701.66;4455437;32;33812;-75
2023/12/27 07:15:07;;;;;;;;;;;;;;;8.77;59.83;100704.00;4454119;32;34132;-75
2023/12/27 07:17:35;;;;;;;;;;;;;;;8.87;59.72;100707.22;4452167;32;33535;-75
2023/12/27 07:20:02;;;;;;;;;;;;;;;8.84;60.03;100711.34;4452903;32;33825;-76
2023/12/27 07:22:30;;;;;;;;;;;;;;;8.88;59.98;100732.25;4451204;32;34595;-75
2023/12/27 07:24:58;;;;;;;;;;;;;;;9.04;59.75;100729.88;4446294;32;34757;-76
2023/12/27 07:27:25;;;;;;;;;;;;;;;9.08;59.63;100737.03;4450598;32;33815;-76
2023/12/27 07:29:53;;;;;;;;;;;;;;;9.12;59.55;100736.44;4453581;32;32580;-77
2023/12/27 07:32:23;;;;;;;;;;;;;;;9.12;59.63;100741.63;4453362;32;35095;-76
2023/12/27 07:34:57;;;;;;;;;;;;;;;9.21;59.38;100744.81;4440738;32;33969;-75
2023/12/27 07:37:24;;;;;;;;;;;;;;;8.90;60.33;100746.16;4453457;32;33209;-76
2023/12/27 07:39:52;;;;;;;;;;;;;;;9.07;59.96;100745.59;4450147;32;35448;-76
2023/12/27 07:42:19;;;;;;;;;;;;;;;9.09;60.24;100754.31;4450260;32;34022;-76
2023/12/27 07:44:47;;;;;;;;;;;;;;;9.27;59.74;100758.91;4452173;32;34803;-76
2023/12/27 07:47:14;;;;;;;;;;;;;;;9.26;60.07;100760.59;4445600;32;33865;-75
2023/12/27 07:49:41;;;;;;;;;;;;;;;9.33;59.98;100769.66;4450680;32;34110;-75
2023/12/27 07:52:09;;;;;;;;;;;;;;;9.37;60.14;100767.38;4444634;32;34443;-74
2023/12/27 07:54:36;;;;;;;;;;;;;;;9.32;60.30;100773.03;4449098;32;34162;-75
2023/12/27 07:57:04;;;;;;;;;;;;;;;9.52;59.96;100775.25;4439404;32;31939;-75
2023/12/27 07:59:31;;;;;;;;;;;;;;;9.56;59.91;100778.91;4449095;32;33818;-76
2023/12/27 08:01:59;;;;;;;;;;;;;;;9.59;59.77;100786.88;4450683;32;34121;-76
2023/12/27 08:04:26;;;;;;;;;;;;;;;9.74;59.21;100789.56;4450834;32;33846;-76
2023/12/27 08:06:54;;;;;;;;;;;;;;;9.71;59.17;100800.56;4446652;32;34452;-77
2023/12/27 08:09:22;;;;;;;;;;;;;;;9.65;59.31;100795.91;4449547;32;33860;-76
2023/12/27 08:11:51;;;;;;;;;;;;;;;9.56;59.73;100800.50;4451606;32;34918;-74
2023/12/27 08:14:18;;;;;;;;;;;;;;;9.64;59.76;100798.41;4452289;32;33945;-76
2023/12/27 08:16:45;;;;;;;;;;;;;;;9.69;59.70;100801.28;4453827;32;34136;-76
2023/12/27 08:19:13;;;;;;;;;;;;;;;10.27;75.63;100792.00;4437681;32;32247;-76
2023/12/27 08:21:40;;;;;;;;;;;;;;;10.28;73.40;100798.09;4452530;32;34125;-74
2023/12/27 08:24:09;;;;;;;;;;;;;;;10.39;69.50;100790.22;4450321;32;34160;-76
2023/12/27 08:26:36;;;;;;;;;;;;;;;10.36;68.86;100790.03;4447763;32;33935;-75
2023/12/27 08:29:03;;;;;;;;;;;;;;;10.18;64.60;100796.63;4451440;32;34082;-75
2023/12/27 08:31:31;;;;;;;;;;;;;;;10.32;61.42;100795.81;4434311;32;34275;-75
2023/12/27 08:33:59;;;;;;;;;;;;;;;10.44;59.76;100800.84;4449727;32;33944;-74
2023/12/27 08:36:29;;;;;;;;;;;;;;;10.42;59.75;100803.34;4443977;32;33144;-74
2023/12/27 08:38:57;;;;;;;;;;;;;;;10.47;59.10;100810.50;4439512;32;33929;-74
2023/12/27 08:41:25;;;;;;;;;;;;;;;10.50;58.98;100826.25;4453518;32;34814;-74
2023/12/27 08:43:52;;;;;;;;;;;;;;;10.63;58.30;100828.78;4452869;32;33074;-75
2023/12/27 08:46:20;;;;;;;;;;;;;;;10.66;58.24;100831.53;4455027;32;33409;-75
2023/12/27 08:48:47;;;;;;;;;;;;;;;10.71;58.46;100837.03;4453555;32;34121;-75
2023/12/27 08:51:15;;;;;;;;;;;;;;;10.74;58.21;100840.69;4449620;32;34812;-74
2023/12/27 08:53:42;;;;;;;;;;;;;;;10.79;58.03;100839.25;4452867;32;34398;-76
2023/12/27 08:56:10;;;;;;;;;;;;;;;10.82;57.87;100839.47;4447514;32;33707;-76
2023/12/27 08:58:37;;;;;;;;;;;;;;;10.51;58.78;100841.00;4431451;32;33899;-74
2023/12/27 09:01:04;;;;;;;;;;;;;;;10.75;58.43;100847.66;4437608;32;32402;-76
2023/12/27 09:03:33;;;;;;;;;;;;;;;10.85;58.10;100848.22;4444996;32;34628;-76
2023/12/27 09:06:00;;;;;;;;;;;;;;;10.85;58.45;100861.19;4449711;32;34171;-76
2023/12/27 09:08:27;;;;;;;;;;;;;;;10.82;58.34;100867.97;4448586;32;34211;-76
2023/12/27 09:10:55;;;;;;;;;;;;;;;10.81;58.28;100884.31;4450059;32;34183;-76
2023/12/27 09:13:22;;;;;;;;;;;;;;;10.91;58.11;100874.50;4449333;32;34475;-76
2023/12/27 09:15:49;;;;;;;;;;;;;;;10.71;58.87;100870.72;4448081;32;33337;-76
2023/12/27 09:18:17;;;;;;;;;;;;;;;10.65;59.13;100876.41;4451879;32;34152;-75
2023/12/27 09:20:45;;;;;;;;;;;;;;;10.98;58.38;100867.19;4452899;32;33872;-75
2023/12/27 09:23:12;;;;;;;;;;;;;;;11.13;57.73;100864.63;4451962;32;34255;-75
2023/12/27 09:25:39;;;;;;;;;;;;;;;10.94;57.86;100870.41;4437563;32;32826;-76
2023/12/27 09:28:08;;;;;;;;;;;;;;;11.14;57.56;100874.19;4452230;32;34104;-76
2023/12/27 09:30:35;;;;;;;;;;;;;;;10.98;58.31;100876.66;4451516;32;34136;-76
2023/12/27 09:33:03;;;;;;;;;;;;;;;11.20;57.55;100877.16;4452687;32;34801;-76
2023/12/27 09:35:31;;;;;;;;;;;;;;;11.17;57.14;100878.69;4449547;32;34083;-76
2023/12/27 09:37:59;;;;;;;;;;;;;;;11.06;57.35;100878.03;4435815;32;34131;-76
2023/12/27 09:40:27;;;;;;;;;;;;;;;11.08;57.60;100878.13;4448383;32;33238;-76
2023/12/27 09:42:54;;;;;;;;;;;;;;;11.38;55.95;100873.88;4452011;32;34678;-75
2023/12/27 09:45:21;;;;;;;;;;;;;;;11.31;55.83;100867.41;4437609;32;33266;-76
2023/12/27 09:47:53;;;;;;;;;;;;;;;11.38;55.08;100868.69;4452203;32;33506;-76
2023/12/27 09:50:21;;;;;;;;;;;;;;;11.38;55.25;100863.50;4447993;32;34027;-76
2023/12/27 09:52:48;;;;;;;;;;;;;;;11.16;55.57;100872.59;4438492;32;34589;-75
2023/12/27 09:55:16;;;;;;;;;;;;;;;11.53;54.01;100869.56;4437045;32;33349;-76
2023/12/27 09:57:43;;;;;;;;;;;;;;;11.49;54.03;100866.69;4438069;32;34137;-75
2023/12/27 10:00:12;;;;;;;;;;;;;;;11.42;54.09;100870.66;4447776;32;33988;-76
2023/12/27 10:02:40;;;;;;;;;;;;;;;11.63;53.33;100871.00;4452510;32;34186;-75
2023/12/27 10:05:12;;;;;;;;;;;;;;;11.48;53.70;100872.69;4442003;32;33364;-74
2023/12/27 10:07:40;;;;;;;;;;;;;;;11.55;53.77;100867.97;4449238;32;34641;-74
2023/12/27 10:10:08;;;;;;;;;;;;;;;11.69;53.23;100860.97;4437816;32;34529;-76
2023/12/27 10:12:50;;;;;;;;;;;;;;;11.63;53.52;100859.69;4432914;32;35011;-76
2023/12/27 10:15:18;;;;;;;;;;;;;;;11.87;53.05;100861.09;4446464;32;33376;-76
2023/12/27 10:17:45;;;;;;;;;;;;;;;11.77;53.32;100854.50;4452429;32;34912;-74
2023/12/27 10:20:38;;;;;;;;;;;;;;;11.65;53.28;100851.22;4450523;32;34244;-76
2023/12/27 10:23:06;;;;;;;;;;;;;;;11.70;53.24;100852.34;4449766;32;34076;-76
2023/12/27 10:25:34;;;;;;;;;;;;;;;11.21;68.58;100854.72;4436346;32;32580;-74
2023/12/27 10:28:01;;;;;;;;;;;;;;;11.23;65.21;100854.81;4438467;32;33650;-76
2023/12/27 10:30:28;;;;;;;;;;;;;;;11.45;59.80;100847.44;4451475;32;34822;-75
2023/12/27 10:32:59;;;;;;;;;;;;;;;11.84;57.12;100853.16;4447978;32;35028;-75
2023/12/27 10:35:28;;;;;;;;;;;;;;;11.80;58.89;100853.75;4447585;32;33154;-74
2023/12/27 10:38:02;;;;;;;;;;;;;;;12.19;54.96;100854.25;4451262;32;33433;-74
2023/12/27 10:40:30;;;;;;;;;;;;;;;12.13;56.95;100854.81;4452679;32;33938;-76
2023/12/27 10:42:57;;;;;;;;;;;;;;;12.27;62.62;100860.75;4449523;32;34038;-75
2023/12/27 10:45:25;;;;;;;;;;;;;;;12.55;55.54;100864.84;4447595;32;33229;-75
2023/12/27 10:47:57;;;;;;;;;;;;;;;12.74;59.58;100856.34;4451807;32;35031;-76
2023/12/27 10:50:26;;;;;;;;;;;;;;;12.95;55.35;100856.56;4435458;32;34105;-75
2023/12/27 10:53:03;;;;;;;;;;;;;;;12.72;60.85;100864.03;4437168;32;34169;-75
2023/12/27 10:55:30;;;;;;;;;;;;;;;13.03;60.58;100865.66;4453057;32;33140;-75
2023/12/27 10:57:58;;;;;;;;;;;;;;;13.34;51.11;100854.25;4439196;32;33723;-75
2023/12/27 11:00:27;;;;;;;;;;;;;;;13.31;50.44;100857.59;4439937;32;34222;-75
2023/12/27 11:02:57;;;;;;;;;;;;;;;13.04;53.08;100862.25;4454132;32;34167;-76
2023/12/27 11:05:26;;;;;;;;;;;;;;;13.18;51.97;100856.03;4450466;32;34196;-75
2023/12/27 11:07:56;;;;;;;;;;;;;;;13.24;52.88;100854.56;4454263;32;35713;-75
2023/12/27 11:10:24;;;;;;;;;;;;;;;13.49;49.92;100857.63;4450977;32;33428;-76
2023/12/27 11:12:52;;;;;;;;;;;;;;;13.73;53.79;100849.22;4449748;32;34935;-78
2023/12/27 11:15:19;;;;;;;;;;;;;;;13.77;52.19;100838.13;4453093;32;32973;-75
2023/12/27 11:17:50;;;;;;;;;;;;;;;13.79;45.89;100830.41;4453459;32;33932;-74
2023/12/27 11:20:20;;;;;;;;;;;;;;;13.75;45.77;100829.34;4437309;32;33034;-76
2023/12/27 11:22:49;;;;;;;;;;;;;;;13.60;46.32;100824.31;4439222;32;34424;-76
2023/12/27 11:25:22;;;;;;;;;;;;;;;13.85;45.12;100829.00;4424526;32;33252;-76
2023/12/27 11:27:51;;;;;;;;;;;;;;;13.69;45.63;100816.03;4453500;32;34524;-76
2023/12/27 11:30:21;;;;;;;;;;;;;;;13.56;46.08;100817.19;4435525;32;35000;-76
2023/12/27 11:32:48;;;;;;;;;;;;;;;14.51;64.25;100811.22;4451433;32;34207;-75
2023/12/27 11:35:27;;;;;;;;;;;;;;;14.84;61.43;100813.56;4452730;32;31945;-76
2023/12/27 11:38:15;;;;;;;;;;;;;;;15.53;54.79;100803.44;4451878;32;34272;-77
2023/12/27 11:40:45;;;;;;;;;;;;;;;15.72;51.63;100799.84;4451372;32;33772;-78
2023/12/27 11:43:20;;;;;;;;;;;;;;;16.38;53.10;100795.38;4453687;32;34143;-77
2023/12/27 11:45:54;;;;;;;;;;;;;;;16.21;49.92;100802.63;4452665;32;33922;-77
2023/12/27 11:48:22;;;;;;;;;;;;;;;16.16;49.89;100797.19;4453724;32;34714;-77
2023/12/27 11:50:49;;;;;;;;;;;;;;;16.32;50.53;100806.50;4432070;32;34434;-77
2023/12/27 11:53:18;;;;;;;;;;;;;;;16.42;47.69;100802.53;4452776;32;32986;-76
2023/12/27 11:55:46;;;;;;;;;;;;;;;16.28;44.97;100802.91;4426800;32;32595;-77
2023/12/27 11:58:15;;;;;;;;;;;;;;;16.36;48.92;100804.88;4436518;32;34153;-77
2023/12/27 12:00:43;;;;;;;;;;;;;;;16.74;46.78;100801.06;4435736;32;34827;-75
2023/12/27 12:03:17;;;;;;;;;;;;;;;17.02;48.67;100786.37;4452423;32;33917;-77
2023/12/27 12:05:53;;;;;;;;;;;;;;;17.05;45.30;100782.13;4432957;32;31713;-76
2023/12/27 12:08:27;;;;;;;;;;;;;;;17.01;44.64;100777.62;4452405;32;35113;-76
2023/12/27 12:11:07;;;;;;;;;;;;;;;16.60;47.46;100774.41;4438750;32;34712;-77
2023/12/27 12:13:36;;;;;;;;;;;;;;;16.94;49.06;100780.88;4431627;32;36466;-74
2023/12/27 12:16:04;;;;;;;;;;;;;;;16.92;48.80;100785.19;4432245;32;32207;-76
2023/12/27 12:18:31;;;;;;;;;;;;;;;16.84;40.43;100778.75;4432820;32;34392;-77
2023/12/27 12:21:00;;;;;;;;;;;;;;;16.51;37.38;100776.69;4433352;32;34880;-77
2023/12/27 12:23:28;;;;;;;;;;;;;;;16.12;38.09;100777.00;4451732;32;34186;-77
2023/12/27 12:26:03;;;;;;;;;;;;;;;15.61;39.00;100771.50;4452890;32;34026;-77
2023/12/27 12:28:30;;;;;;;;;;;;;;;15.47;49.50;100782.28;4451930;32;33766;-77
2023/12/27 12:30:58;;;;;;;;;;;;;;;15.33;43.63;100771.25;4448442;32;34293;-76
2023/12/27 12:33:25;;;;;;;;;;;;;;;15.44;41.12;100774.31;4451978;32;34204;-75
2023/12/27 12:35:53;;;;;;;;;;;;;;;15.75;41.94;100765.13;4452129;32;33975;-77
2023/12/27 12:38:22;;;;;;;;;;;;;;;15.44;48.97;100774.31;4436616;32;34311;-76
2023/12/27 12:40:50;;;;;;;;;;;;;;;15.64;42.36;100771.63;4449659;32;33993;-76
2023/12/27 12:43:17;;;;;;;;;;;;;;;15.59;41.16;100778.38;4436672;32;34175;-77